sensor_id;sensor_type;location;lat;lon;timestamp;P1;durP1;ratioP1;P2;durP2;ratioP2
40863;SDS011;26582;47.524;19.012;2024-01-30T00:01:58;24.17;;;12.27;;
40863;SDS011;26582;47.524;19.012;2024-01-30T00:04:25;23.23;;;12.23;;
40863;SDS011;26582;47.524;19.012;2024-01-30T00:06:51;21.75;;;12.25;;
40863;SDS011;26582;47.524;19.012;2024-01-30T00:09:19;22.17;;;12.43;;
40863;SDS011;26582;47.524;19.012;2024-01-30T00:11:45;22.73;;;11.23;;
40863;SDS011;26582;47.524;19.012;2024-01-30T00:14:12;22.73;;;11.98;;
40863;SDS011;26582;47.524;19.012;2024-01-30T00:16:39;22.92;;;12.27;;
40863;SDS011;26582;47.524;19.012;2024-01-30T00:19:07;19.38;;;11.48;;
40863;SDS011;26582;47.524;19.012;2024-01-30T00:21:33;21.58;;;12.35;;
40863;SDS011;26582;47.524;19.012;2024-01-30T00:24:00;24.45;;;12.10;;
40863;SDS011;26582;47.524;19.012;2024-01-30T00:26:27;25.17;;;11.75;;
40863;SDS011;26582;47.524;19.012;2024-01-30T00:28:53;22.95;;;11.80;;
40863;SDS011;26582;47.524;19.012;2024-01-30T00:31:20;24.20;;;12.40;;
40863;SDS011;26582;47.524;19.012;2024-01-30T00:33:47;25.67;;;11.55;;
40863;SDS011;26582;47.524;19.012;2024-01-30T00:36:15;25.02;;;12.32;;
40863;SDS011;26582;47.524;19.012;2024-01-30T00:38:41;24.58;;;12.55;;
40863;SDS011;26582;47.524;19.012;2024-01-30T00:41:08;25.70;;;12.23;;
40863;SDS011;26582;47.524;19.012;2024-01-30T00:43:35;21.98;;;11.85;;
40863;SDS011;26582;47.524;19.012;2024-01-30T00:46:02;27.20;;;12.05;;
40863;SDS011;26582;47.524;19.012;2024-01-30T00:48:29;23.30;;;11.88;;
40863;SDS011;26582;47.524;19.012;2024-01-30T00:50:56;23.88;;;12.15;;
40863;SDS011;26582;47.524;19.012;2024-01-30T00:53:24;30.88;;;13.13;;
40863;SDS011;26582;47.524;19.012;2024-01-30T00:55:50;21.00;;;11.25;;
40863;SDS011;26582;47.524;19.012;2024-01-30T00:58:17;22.17;;;12.13;;
40863;SDS011;26582;47.524;19.012;2024-01-30T01:00:44;22.00;;;12.07;;
40863;SDS011;26582;47.524;19.012;2024-01-30T01:03:11;24.98;;;12.70;;
40863;SDS011;26582;47.524;19.012;2024-01-30T01:05:39;24.65;;;12.00;;
40863;SDS011;26582;47.524;19.012;2024-01-30T01:08:06;28.38;;;12.43;;
40863;SDS011;26582;47.524;19.012;2024-01-30T01:10:34;23.25;;;11.55;;
40863;SDS011;26582;47.524;19.012;2024-01-30T01:13:00;19.10;;;10.55;;
40863;SDS011;26582;47.524;19.012;2024-01-30T01:15:27;21.70;;;10.82;;
40863;SDS011;26582;47.524;19.012;2024-01-30T01:17:54;22.98;;;10.82;;
40863;SDS011;26582;47.524;19.012;2024-01-30T01:20:20;25.98;;;11.77;;
40863;SDS011;26582;47.524;19.012;2024-01-30T01:22:47;25.83;;;11.57;;
40863;SDS011;26582;47.524;19.012;2024-01-30T01:25:14;20.67;;;10.25;;
40863;SDS011;26582;47.524;19.012;2024-01-30T01:27:42;22.17;;;11.10;;
40863;SDS011;26582;47.524;19.012;2024-01-30T01:30:16;20.10;;;10.55;;
40863;SDS011;26582;47.524;19.012;2024-01-30T01:32:47;21.65;;;11.68;;
40863;SDS011;26582;47.524;19.012;2024-01-30T01:35:20;19.80;;;10.50;;
40863;SDS011;26582;47.524;19.012;2024-01-30T01:37:47;21.77;;;10.98;;
40863;SDS011;26582;47.524;19.012;2024-01-30T01:40:20;22.20;;;12.13;;
40863;SDS011;26582;47.524;19.012;2024-01-30T01:42:48;20.60;;;10.88;;
40863;SDS011;26582;47.524;19.012;2024-01-30T01:45:16;25.65;;;11.43;;
40863;SDS011;26582;47.524;19.012;2024-01-30T01:47:43;23.25;;;11.32;;
40863;SDS011;26582;47.524;19.012;2024-01-30T01:50:11;24.10;;;12.18;;
40863;SDS011;26582;47.524;19.012;2024-01-30T01:52:38;25.17;;;11.73;;
40863;SDS011;26582;47.524;19.012;2024-01-30T01:55:06;26.30;;;12.35;;
40863;SDS011;26582;47.524;19.012;2024-01-30T01:57:37;27.33;;;12.50;;
40863;SDS011;26582;47.524;19.012;2024-01-30T02:00:06;21.42;;;12.82;;
40863;SDS011;26582;47.524;19.012;2024-01-30T02:02:35;24.20;;;11.50;;
40863;SDS011;26582;47.524;19.012;2024-01-30T02:05:03;24.33;;;12.43;;
40863;SDS011;26582;47.524;19.012;2024-01-30T02:07:30;25.67;;;12.75;;
40863;SDS011;26582;47.524;19.012;2024-01-30T02:09:57;25.73;;;12.25;;
40863;SDS011;26582;47.524;19.012;2024-01-30T02:12:23;25.05;;;11.63;;
40863;SDS011;26582;47.524;19.012;2024-01-30T02:14:50;22.60;;;12.73;;
40863;SDS011;26582;47.524;19.012;2024-01-30T02:17:20;26.92;;;11.95;;
40863;SDS011;26582;47.524;19.012;2024-01-30T02:19:48;22.63;;;12.52;;
40863;SDS011;26582;47.524;19.012;2024-01-30T02:22:16;26.42;;;12.23;;
40863;SDS011;26582;47.524;19.012;2024-01-30T02:24:43;25.90;;;13.45;;
40863;SDS011;26582;47.524;19.012;2024-01-30T02:27:10;28.05;;;12.27;;
40863;SDS011;26582;47.524;19.012;2024-01-30T02:29:36;23.90;;;12.60;;
40863;SDS011;26582;47.524;19.012;2024-01-30T02:32:03;22.42;;;12.77;;
40863;SDS011;26582;47.524;19.012;2024-01-30T02:34:31;25.73;;;13.90;;
40863;SDS011;26582;47.524;19.012;2024-01-30T02:36:58;23.30;;;13.52;;
40863;SDS011;26582;47.524;19.012;2024-01-30T02:39:26;21.45;;;12.18;;
40863;SDS011;26582;47.524;19.012;2024-01-30T02:41:52;25.23;;;13.38;;
40863;SDS011;26582;47.524;19.012;2024-01-30T02:44:20;28.63;;;14.15;;
40863;SDS011;26582;47.524;19.012;2024-01-30T02:46:46;30.05;;;14.27;;
40863;SDS011;26582;47.524;19.012;2024-01-30T02:49:13;32.17;;;13.93;;
40863;SDS011;26582;47.524;19.012;2024-01-30T02:51:40;29.73;;;14.65;;
40863;SDS011;26582;47.524;19.012;2024-01-30T02:54:06;25.65;;;13.68;;
40863;SDS011;26582;47.524;19.012;2024-01-30T02:56:34;32.67;;;14.75;;
40863;SDS011;26582;47.524;19.012;2024-01-30T02:59:01;32.15;;;14.50;;
40863;SDS011;26582;47.524;19.012;2024-01-30T03:01:28;30.17;;;14.80;;
40863;SDS011;26582;47.524;19.012;2024-01-30T03:03:54;28.30;;;14.82;;
40863;SDS011;26582;47.524;19.012;2024-01-30T03:06:21;29.92;;;15.07;;
40863;SDS011;26582;47.524;19.012;2024-01-30T03:08:48;32.10;;;16.52;;
40863;SDS011;26582;47.524;19.012;2024-01-30T03:11:15;30.73;;;17.20;;
40863;SDS011;26582;47.524;19.012;2024-01-30T03:13:43;32.80;;;16.27;;
40863;SDS011;26582;47.524;19.012;2024-01-30T03:16:09;32.25;;;16.98;;
40863;SDS011;26582;47.524;19.012;2024-01-30T03:18:36;31.65;;;16.80;;
40863;SDS011;26582;47.524;19.012;2024-01-30T03:21:03;32.75;;;16.88;;
40863;SDS011;26582;47.524;19.012;2024-01-30T03:23:30;35.58;;;17.67;;
40863;SDS011;26582;47.524;19.012;2024-01-30T03:25:57;42.55;;;18.20;;
40863;SDS011;26582;47.524;19.012;2024-01-30T03:28:24;35.33;;;18.60;;
40863;SDS011;26582;47.524;19.012;2024-01-30T03:30:52;36.13;;;18.65;;
40863;SDS011;26582;47.524;19.012;2024-01-30T03:33:19;33.33;;;17.52;;
40863;SDS011;26582;47.524;19.012;2024-01-30T03:35:45;38.55;;;20.17;;
40863;SDS011;26582;47.524;19.012;2024-01-30T03:38:12;40.97;;;20.20;;
40863;SDS011;26582;47.524;19.012;2024-01-30T03:40:39;35.92;;;19.08;;
40863;SDS011;26582;47.524;19.012;2024-01-30T03:43:05;40.53;;;19.60;;
40863;SDS011;26582;47.524;19.012;2024-01-30T03:45:32;35.30;;;18.45;;
40863;SDS011;26582;47.524;19.012;2024-01-30T03:48:00;40.40;;;21.00;;
40863;SDS011;26582;47.524;19.012;2024-01-30T03:50:27;39.58;;;20.10;;
40863;SDS011;26582;47.524;19.012;2024-01-30T03:52:53;35.42;;;18.80;;
40863;SDS011;26582;47.524;19.012;2024-01-30T03:55:20;36.10;;;18.30;;
40863;SDS011;26582;47.524;19.012;2024-01-30T03:57:47;38.30;;;19.45;;
40863;SDS011;26582;47.524;19.012;2024-01-30T04:00:14;34.95;;;18.67;;
40863;SDS011;26582;47.524;19.012;2024-01-30T04:02:41;39.05;;;18.25;;
40863;SDS011;26582;47.524;19.012;2024-01-30T04:05:09;31.75;;;17.58;;
40863;SDS011;26582;47.524;19.012;2024-01-30T04:07:36;35.78;;;18.25;;
40863;SDS011;26582;47.524;19.012;2024-01-30T04:10:02;27.20;;;15.75;;
40863;SDS011;26582;47.524;19.012;2024-01-30T04:12:30;30.92;;;15.32;;
40863;SDS011;26582;47.524;19.012;2024-01-30T04:14:57;31.48;;;14.98;;
40863;SDS011;26582;47.524;19.012;2024-01-30T04:17:24;31.55;;;14.50;;
40863;SDS011;26582;47.524;19.012;2024-01-30T04:19:50;28.58;;;13.93;;
40863;SDS011;26582;47.524;19.012;2024-01-30T04:22:18;30.73;;;15.48;;
40863;SDS011;26582;47.524;19.012;2024-01-30T04:24:45;29.95;;;14.75;;
40863;SDS011;26582;47.524;19.012;2024-01-30T04:27:12;28.88;;;13.88;;
40863;SDS011;26582;47.524;19.012;2024-01-30T04:29:38;29.48;;;14.30;;
40863;SDS011;26582;47.524;19.012;2024-01-30T04:32:05;29.42;;;13.77;;
40863;SDS011;26582;47.524;19.012;2024-01-30T04:34:32;28.45;;;13.77;;
40863;SDS011;26582;47.524;19.012;2024-01-30T04:36:59;25.60;;;13.27;;
40863;SDS011;26582;47.524;19.012;2024-01-30T04:39:27;26.45;;;13.65;;
40863;SDS011;26582;47.524;19.012;2024-01-30T04:41:54;26.33;;;13.38;;
40863;SDS011;26582;47.524;19.012;2024-01-30T04:44:20;26.42;;;14.68;;
40863;SDS011;26582;47.524;19.012;2024-01-30T04:46:47;27.77;;;13.82;;
40863;SDS011;26582;47.524;19.012;2024-01-30T04:49:14;26.90;;;14.35;;
40863;SDS011;26582;47.524;19.012;2024-01-30T04:51:40;29.73;;;15.20;;
40863;SDS011;26582;47.524;19.012;2024-01-30T04:54:07;29.98;;;13.63;;
40863;SDS011;26582;47.524;19.012;2024-01-30T04:56:35;24.75;;;13.80;;
40863;SDS011;26582;47.524;19.012;2024-01-30T04:59:02;26.77;;;13.85;;
40863;SDS011;26582;47.524;19.012;2024-01-30T05:01:29;33.17;;;14.25;;
40863;SDS011;26582;47.524;19.012;2024-01-30T05:03:55;29.13;;;13.60;;
40863;SDS011;26582;47.524;19.012;2024-01-30T05:06:25;22.80;;;12.90;;
40863;SDS011;26582;47.524;19.012;2024-01-30T05:08:52;25.67;;;13.85;;
40863;SDS011;26582;47.524;19.012;2024-01-30T05:11:19;34.72;;;13.85;;
40863;SDS011;26582;47.524;19.012;2024-01-30T05:13:47;27.55;;;13.63;;
40863;SDS011;26582;47.524;19.012;2024-01-30T05:16:14;25.10;;;13.25;;
40863;SDS011;26582;47.524;19.012;2024-01-30T05:18:40;26.95;;;13.48;;
40863;SDS011;26582;47.524;19.012;2024-01-30T05:21:07;29.52;;;14.02;;
40863;SDS011;26582;47.524;19.012;2024-01-30T05:23:34;22.65;;;12.82;;
40863;SDS011;26582;47.524;19.012;2024-01-30T05:26:01;28.70;;;15.48;;
40863;SDS011;26582;47.524;19.012;2024-01-30T05:28:28;29.17;;;14.13;;
40863;SDS011;26582;47.524;19.012;2024-01-30T05:30:56;27.67;;;13.90;;
40863;SDS011;26582;47.524;19.012;2024-01-30T05:33:23;29.17;;;14.30;;
40863;SDS011;26582;47.524;19.012;2024-01-30T05:35:50;23.58;;;13.20;;
40863;SDS011;26582;47.524;19.012;2024-01-30T05:38:19;28.23;;;13.60;;
40863;SDS011;26582;47.524;19.012;2024-01-30T05:40:46;25.92;;;13.90;;
40863;SDS011;26582;47.524;19.012;2024-01-30T05:43:12;27.48;;;13.35;;
40863;SDS011;26582;47.524;19.012;2024-01-30T05:45:39;24.13;;;13.68;;
40863;SDS011;26582;47.524;19.012;2024-01-30T05:48:07;24.10;;;13.80;;
40863;SDS011;26582;47.524;19.012;2024-01-30T05:50:34;29.67;;;14.10;;
40863;SDS011;26582;47.524;19.012;2024-01-30T05:53:01;25.13;;;13.05;;
40863;SDS011;26582;47.524;19.012;2024-01-30T05:55:27;29.63;;;13.35;;
40863;SDS011;26582;47.524;19.012;2024-01-30T05:57:55;28.08;;;13.20;;
40863;SDS011;26582;47.524;19.012;2024-01-30T06:00:22;24.00;;;13.70;;
40863;SDS011;26582;47.524;19.012;2024-01-30T06:02:49;30.75;;;15.15;;
40863;SDS011;26582;47.524;19.012;2024-01-30T06:05:17;25.83;;;13.43;;
40863;SDS011;26582;47.524;19.012;2024-01-30T06:07:43;29.83;;;14.50;;
40863;SDS011;26582;47.524;19.012;2024-01-30T06:10:10;27.80;;;13.82;;
40863;SDS011;26582;47.524;19.012;2024-01-30T06:12:37;31.63;;;14.75;;
40863;SDS011;26582;47.524;19.012;2024-01-30T06:15:04;26.17;;;14.80;;
40863;SDS011;26582;47.524;19.012;2024-01-30T06:17:32;28.95;;;14.57;;
40863;SDS011;26582;47.524;19.012;2024-01-30T06:19:59;30.45;;;15.05;;
40863;SDS011;26582;47.524;19.012;2024-01-30T06:22:27;29.10;;;15.32;;
40863;SDS011;26582;47.524;19.012;2024-01-30T06:24:53;27.35;;;14.85;;
40863;SDS011;26582;47.524;19.012;2024-01-30T06:27:20;28.38;;;15.15;;
40863;SDS011;26582;47.524;19.012;2024-01-30T06:29:47;32.47;;;16.50;;
40863;SDS011;26582;47.524;19.012;2024-01-30T06:32:14;31.52;;;17.23;;
40863;SDS011;26582;47.524;19.012;2024-01-30T06:34:40;31.85;;;17.00;;
40863;SDS011;26582;47.524;19.012;2024-01-30T06:37:09;33.83;;;17.15;;
40863;SDS011;26582;47.524;19.012;2024-01-30T06:39:37;38.22;;;17.42;;
40863;SDS011;26582;47.524;19.012;2024-01-30T06:42:04;32.70;;;16.80;;
40863;SDS011;26582;47.524;19.012;2024-01-30T06:44:31;32.83;;;16.55;;
40863;SDS011;26582;47.524;19.012;2024-01-30T06:46:57;29.73;;;15.80;;
40863;SDS011;26582;47.524;19.012;2024-01-30T06:49:24;32.22;;;16.98;;
40863;SDS011;26582;47.524;19.012;2024-01-30T06:51:51;33.72;;;17.30;;
40863;SDS011;26582;47.524;19.012;2024-01-30T06:54:17;28.55;;;15.48;;
40863;SDS011;26582;47.524;19.012;2024-01-30T06:56:45;34.58;;;17.13;;
40863;SDS011;26582;47.524;19.012;2024-01-30T06:59:12;32.75;;;18.10;;
40863;SDS011;26582;47.524;19.012;2024-01-30T07:01:39;36.55;;;18.08;;
40863;SDS011;26582;47.524;19.012;2024-01-30T07:04:05;35.63;;;19.27;;
40863;SDS011;26582;47.524;19.012;2024-01-30T07:06:32;36.38;;;19.65;;
40863;SDS011;26582;47.524;19.012;2024-01-30T07:08:59;38.10;;;19.27;;
40863;SDS011;26582;47.524;19.012;2024-01-30T07:11:26;37.88;;;19.00;;
40863;SDS011;26582;47.524;19.012;2024-01-30T07:13:55;34.03;;;18.27;;
40863;SDS011;26582;47.524;19.012;2024-01-30T07:16:22;36.22;;;18.40;;
40863;SDS011;26582;47.524;19.012;2024-01-30T07:18:48;33.13;;;18.10;;
40863;SDS011;26582;47.524;19.012;2024-01-30T07:21:15;33.40;;;18.23;;
40863;SDS011;26582;47.524;19.012;2024-01-30T07:23:42;35.05;;;18.35;;
40863;SDS011;26582;47.524;19.012;2024-01-30T07:26:09;31.30;;;18.08;;
40863;SDS011;26582;47.524;19.012;2024-01-30T07:28:36;34.45;;;18.30;;
40863;SDS011;26582;47.524;19.012;2024-01-30T07:31:04;33.00;;;17.40;;
40863;SDS011;26582;47.524;19.012;2024-01-30T07:33:31;41.15;;;18.08;;
40863;SDS011;26582;47.524;19.012;2024-01-30T07:35:58;33.13;;;17.40;;
40863;SDS011;26582;47.524;19.012;2024-01-30T07:38:25;39.88;;;17.98;;
40863;SDS011;26582;47.524;19.012;2024-01-30T07:40:51;34.55;;;16.65;;
40863;SDS011;26582;47.524;19.012;2024-01-30T07:43:18;34.60;;;16.42;;
40863;SDS011;26582;47.524;19.012;2024-01-30T07:45:46;30.52;;;16.13;;
40863;SDS011;26582;47.524;19.012;2024-01-30T07:48:14;36.67;;;17.27;;
40863;SDS011;26582;47.524;19.012;2024-01-30T07:50:41;33.60;;;16.38;;
40863;SDS011;26582;47.524;19.012;2024-01-30T07:53:07;32.33;;;16.92;;
40863;SDS011;26582;47.524;19.012;2024-01-30T07:55:34;35.30;;;17.90;;
40863;SDS011;26582;47.524;19.012;2024-01-30T07:58:01;30.27;;;15.82;;
40863;SDS011;26582;47.524;19.012;2024-01-30T08:00:29;27.38;;;14.32;;
40863;SDS011;26582;47.524;19.012;2024-01-30T08:02:56;32.75;;;16.67;;
40863;SDS011;26582;47.524;19.012;2024-01-30T08:05:25;28.95;;;15.88;;
40863;SDS011;26582;47.524;19.012;2024-01-30T08:07:51;31.50;;;16.08;;
40863;SDS011;26582;47.524;19.012;2024-01-30T08:10:18;29.90;;;15.85;;
40863;SDS011;26582;47.524;19.012;2024-01-30T08:12:45;28.02;;;15.57;;
40863;SDS011;26582;47.524;19.012;2024-01-30T08:15:11;30.20;;;15.32;;
40863;SDS011;26582;47.524;19.012;2024-01-30T08:17:38;29.02;;;14.60;;
40863;SDS011;26582;47.524;19.012;2024-01-30T08:20:06;27.00;;;15.27;;
40863;SDS011;26582;47.524;19.012;2024-01-30T08:22:37;29.02;;;15.57;;
40863;SDS011;26582;47.524;19.012;2024-01-30T08:25:05;26.50;;;15.83;;
40863;SDS011;26582;47.524;19.012;2024-01-30T08:27:32;27.38;;;15.02;;
40863;SDS011;26582;47.524;19.012;2024-01-30T08:30:00;25.27;;;13.70;;
40863;SDS011;26582;47.524;19.012;2024-01-30T08:32:27;31.15;;;15.15;;
40863;SDS011;26582;47.524;19.012;2024-01-30T08:34:54;26.08;;;14.50;;
40863;SDS011;26582;47.524;19.012;2024-01-30T08:37:20;31.60;;;15.73;;
40863;SDS011;26582;47.524;19.012;2024-01-30T08:39:48;29.73;;;15.05;;
40863;SDS011;26582;47.524;19.012;2024-01-30T08:42:15;29.27;;;14.25;;
40863;SDS011;26582;47.524;19.012;2024-01-30T08:44:43;28.60;;;15.02;;
40863;SDS011;26582;47.524;19.012;2024-01-30T08:47:10;34.33;;;15.98;;
40863;SDS011;26582;47.524;19.012;2024-01-30T08:49:37;29.67;;;15.70;;
40863;SDS011;26582;47.524;19.012;2024-01-30T08:52:02;29.13;;;15.65;;
40863;SDS011;26582;47.524;19.012;2024-01-30T08:54:29;32.03;;;15.50;;
40863;SDS011;26582;47.524;19.012;2024-01-30T08:57:00;28.98;;;15.75;;
40863;SDS011;26582;47.524;19.012;2024-01-30T08:59:27;31.05;;;16.70;;
40863;SDS011;26582;47.524;19.012;2024-01-30T09:01:54;31.17;;;17.05;;
40863;SDS011;26582;47.524;19.012;2024-01-30T09:04:23;32.47;;;17.70;;
40863;SDS011;26582;47.524;19.012;2024-01-30T09:06:49;39.10;;;17.58;;
40863;SDS011;26582;47.524;19.012;2024-01-30T09:09:16;33.45;;;17.73;;
40863;SDS011;26582;47.524;19.012;2024-01-30T09:11:44;32.83;;;17.40;;
40863;SDS011;26582;47.524;19.012;2024-01-30T09:14:12;31.52;;;16.85;;
40863;SDS011;26582;47.524;19.012;2024-01-30T09:16:38;33.05;;;17.40;;
40863;SDS011;26582;47.524;19.012;2024-01-30T09:19:05;30.45;;;17.13;;
40863;SDS011;26582;47.524;19.012;2024-01-30T09:21:32;32.30;;;16.52;;
40863;SDS011;26582;47.524;19.012;2024-01-30T09:24:01;32.05;;;15.27;;
40863;SDS011;26582;47.524;19.012;2024-01-30T09:26:28;31.73;;;16.02;;
40863;SDS011;26582;47.524;19.012;2024-01-30T09:28:55;31.08;;;16.92;;
40863;SDS011;26582;47.524;19.012;2024-01-30T09:31:23;34.58;;;18.80;;
40863;SDS011;26582;47.524;19.012;2024-01-30T09:33:50;38.55;;;20.05;;
40863;SDS011;26582;47.524;19.012;2024-01-30T09:36:19;41.27;;;20.20;;
40863;SDS011;26582;47.524;19.012;2024-01-30T09:38:45;38.83;;;19.83;;
40863;SDS011;26582;47.524;19.012;2024-01-30T09:41:12;18.83;;;10.73;;
40863;SDS011;26582;47.524;19.012;2024-01-30T09:43:39;38.97;;;18.45;;
40863;SDS011;26582;47.524;19.012;2024-01-30T09:46:08;19.88;;;10.63;;
40863;SDS011;26582;47.524;19.012;2024-01-30T09:48:40;36.70;;;19.10;;
40863;SDS011;26582;47.524;19.012;2024-01-30T09:51:07;35.67;;;17.35;;
40863;SDS011;26582;47.524;19.012;2024-01-30T09:53:35;35.13;;;18.40;;
40863;SDS011;26582;47.524;19.012;2024-01-30T09:56:03;38.42;;;18.90;;
40863;SDS011;26582;47.524;19.012;2024-01-30T09:58:31;39.35;;;20.63;;
40863;SDS011;26582;47.524;19.012;2024-01-30T10:00:58;37.97;;;19.23;;
40863;SDS011;26582;47.524;19.012;2024-01-30T10:03:25;34.00;;;18.27;;
40863;SDS011;26582;47.524;19.012;2024-01-30T10:05:53;37.70;;;19.15;;
40863;SDS011;26582;47.524;19.012;2024-01-30T10:08:22;35.95;;;18.58;;
40863;SDS011;26582;47.524;19.012;2024-01-30T10:10:49;34.70;;;18.20;;
40863;SDS011;26582;47.524;19.012;2024-01-30T10:13:16;37.10;;;18.40;;
40863;SDS011;26582;47.524;19.012;2024-01-30T10:15:44;32.28;;;18.63;;
40863;SDS011;26582;47.524;19.012;2024-01-30T10:18:11;35.50;;;18.95;;
40863;SDS011;26582;47.524;19.012;2024-01-30T10:20:37;35.55;;;18.90;;
40863;SDS011;26582;47.524;19.012;2024-01-30T10:23:05;32.38;;;16.73;;
40863;SDS011;26582;47.524;19.012;2024-01-30T10:25:33;33.75;;;17.88;;
40863;SDS011;26582;47.524;19.012;2024-01-30T10:27:59;33.58;;;18.35;;
40863;SDS011;26582;47.524;19.012;2024-01-30T10:30:27;33.30;;;18.15;;
40863;SDS011;26582;47.524;19.012;2024-01-30T10:32:54;31.70;;;16.00;;
40863;SDS011;26582;47.524;19.012;2024-01-30T10:35:20;35.03;;;16.50;;
40863;SDS011;26582;47.524;19.012;2024-01-30T10:37:47;38.53;;;18.08;;
40863;SDS011;26582;47.524;19.012;2024-01-30T10:40:16;35.45;;;16.65;;
40863;SDS011;26582;47.524;19.012;2024-01-30T10:42:43;31.13;;;17.48;;
40863;SDS011;26582;47.524;19.012;2024-01-30T10:45:10;24.30;;;12.60;;
40863;SDS011;26582;47.524;19.012;2024-01-30T10:47:39;32.80;;;17.15;;
40863;SDS011;26582;47.524;19.012;2024-01-30T10:50:07;27.88;;;14.65;;
40863;SDS011;26582;47.524;19.012;2024-01-30T10:52:35;29.70;;;15.05;;
40863;SDS011;26582;47.524;19.012;2024-01-30T10:55:04;25.90;;;13.63;;
40863;SDS011;26582;47.524;19.012;2024-01-30T10:57:35;21.35;;;10.85;;
40863;SDS011;26582;47.524;19.012;2024-01-30T11:02:30;23.58;;;12.70;;
40863;SDS011;26582;47.524;19.012;2024-01-30T11:04:59;28.02;;;13.00;;
40863;SDS011;26582;47.524;19.012;2024-01-30T11:07:26;21.73;;;11.75;;
40863;SDS011;26582;47.524;19.012;2024-01-30T11:09:59;14.82;;;6.90;;
40863;SDS011;26582;47.524;19.012;2024-01-30T11:12:27;15.60;;;9.95;;
40863;SDS011;26582;47.524;19.012;2024-01-30T11:15:02;26.45;;;13.25;;
40863;SDS011;26582;47.524;19.012;2024-01-30T11:17:43;32.60;;;14.48;;
40863;SDS011;26582;47.524;19.012;2024-01-30T11:20:11;22.85;;;11.38;;
40863;SDS011;26582;47.524;19.012;2024-01-30T11:22:42;26.67;;;14.15;;
40863;SDS011;26582;47.524;19.012;2024-01-30T11:25:12;28.70;;;13.27;;
40863;SDS011;26582;47.524;19.012;2024-01-30T11:27:40;22.67;;;12.25;;
40863;SDS011;26582;47.524;19.012;2024-01-30T11:30:09;18.67;;;7.93;;
40863;SDS011;26582;47.524;19.012;2024-01-30T11:32:36;29.47;;;14.97;;
40863;SDS011;26582;47.524;19.012;2024-01-30T11:35:03;27.33;;;14.65;;
40863;SDS011;26582;47.524;19.012;2024-01-30T11:37:32;27.63;;;14.73;;
40863;SDS011;26582;47.524;19.012;2024-01-30T11:40:03;33.53;;;15.40;;
40863;SDS011;26582;47.524;19.012;2024-01-30T11:42:31;33.85;;;15.00;;
40863;SDS011;26582;47.524;19.012;2024-01-30T11:45:00;28.67;;;12.98;;
40863;SDS011;26582;47.524;19.012;2024-01-30T11:47:29;29.80;;;15.90;;
40863;SDS011;26582;47.524;19.012;2024-01-30T11:49:56;16.48;;;8.70;;
40863;SDS011;26582;47.524;19.012;2024-01-30T11:52:23;27.17;;;13.85;;
40863;SDS011;26582;47.524;19.012;2024-01-30T11:54:50;27.70;;;14.73;;
40863;SDS011;26582;47.524;19.012;2024-01-30T11:57:17;23.77;;;11.73;;
40863;SDS011;26582;47.524;19.012;2024-01-30T11:59:44;20.90;;;10.20;;
40863;SDS011;26582;47.524;19.012;2024-01-30T12:02:15;27.13;;;12.95;;
40863;SDS011;26582;47.524;19.012;2024-01-30T12:04:43;22.05;;;8.35;;
40863;SDS011;26582;47.524;19.012;2024-01-30T12:07:10;27.40;;;13.02;;
40863;SDS011;26582;47.524;19.012;2024-01-30T12:09:37;29.88;;;12.80;;
40863;SDS011;26582;47.524;19.012;2024-01-30T12:12:04;21.13;;;10.80;;
40863;SDS011;26582;47.524;19.012;2024-01-30T12:14:37;22.83;;;12.43;;
40863;SDS011;26582;47.524;19.012;2024-01-30T12:17:05;20.00;;;10.70;;
40863;SDS011;26582;47.524;19.012;2024-01-30T12:19:33;22.42;;;12.35;;
40863;SDS011;26582;47.524;19.012;2024-01-30T12:22:01;22.67;;;11.32;;
40863;SDS011;26582;47.524;19.012;2024-01-30T12:24:29;18.85;;;8.18;;
40863;SDS011;26582;47.524;19.012;2024-01-30T12:26:56;16.08;;;9.48;;
40863;SDS011;26582;47.524;19.012;2024-01-30T12:29:23;21.83;;;12.60;;
40863;SDS011;26582;47.524;19.012;2024-01-30T12:31:52;22.95;;;12.63;;
40863;SDS011;26582;47.524;19.012;2024-01-30T12:34:19;19.93;;;12.13;;
40863;SDS011;26582;47.524;19.012;2024-01-30T12:36:46;19.00;;;10.80;;
40863;SDS011;26582;47.524;19.012;2024-01-30T12:39:15;22.63;;;11.52;;
40863;SDS011;26582;47.524;19.012;2024-01-30T12:41:42;22.75;;;13.02;;
40863;SDS011;26582;47.524;19.012;2024-01-30T12:44:09;17.90;;;11.40;;
40863;SDS011;26582;47.524;19.012;2024-01-30T12:46:36;18.63;;;11.07;;
40863;SDS011;26582;47.524;19.012;2024-01-30T12:49:02;16.88;;;12.18;;
40863;SDS011;26582;47.524;19.012;2024-01-30T12:51:29;18.08;;;11.48;;
40863;SDS011;26582;47.524;19.012;2024-01-30T12:53:56;18.98;;;11.48;;
40863;SDS011;26582;47.524;19.012;2024-01-30T12:56:24;17.27;;;10.98;;
40863;SDS011;26582;47.524;19.012;2024-01-30T12:58:51;16.83;;;10.63;;
40863;SDS011;26582;47.524;19.012;2024-01-30T13:01:18;16.77;;;11.02;;
40863;SDS011;26582;47.524;19.012;2024-01-30T13:03:44;16.92;;;11.20;;
40863;SDS011;26582;47.524;19.012;2024-01-30T13:06:11;13.98;;;10.27;;
40863;SDS011;26582;47.524;19.012;2024-01-30T13:08:38;13.00;;;7.53;;
40863;SDS011;26582;47.524;19.012;2024-01-30T13:11:05;15.70;;;10.07;;
40863;SDS011;26582;47.524;19.012;2024-01-30T13:13:33;17.35;;;9.68;;
40863;SDS011;26582;47.524;19.012;2024-01-30T13:16:00;14.10;;;9.00;;
40863;SDS011;26582;47.524;19.012;2024-01-30T13:18:27;15.48;;;9.85;;
40863;SDS011;26582;47.524;19.012;2024-01-30T13:20:54;11.98;;;8.50;;
40863;SDS011;26582;47.524;19.012;2024-01-30T13:23:21;12.68;;;8.40;;
40863;SDS011;26582;47.524;19.012;2024-01-30T13:25:47;14.32;;;8.77;;
40863;SDS011;26582;47.524;19.012;2024-01-30T13:28:14;12.25;;;8.45;;
40863;SDS011;26582;47.524;19.012;2024-01-30T13:30:42;14.52;;;8.60;;
40863;SDS011;26582;47.524;19.012;2024-01-30T13:33:09;11.50;;;7.32;;
40863;SDS011;26582;47.524;19.012;2024-01-30T13:35:36;14.93;;;8.30;;
40863;SDS011;26582;47.524;19.012;2024-01-30T13:38:03;14.10;;;8.07;;
40863;SDS011;26582;47.524;19.012;2024-01-30T13:40:30;12.55;;;7.95;;
40863;SDS011;26582;47.524;19.012;2024-01-30T13:42:56;12.77;;;7.45;;
40863;SDS011;26582;47.524;19.012;2024-01-30T13:45:23;11.73;;;6.78;;
40863;SDS011;26582;47.524;19.012;2024-01-30T13:47:51;10.63;;;5.70;;
40863;SDS011;26582;47.524;19.012;2024-01-30T13:50:18;12.13;;;6.90;;
40863;SDS011;26582;47.524;19.012;2024-01-30T13:52:45;12.07;;;6.57;;
40863;SDS011;26582;47.524;19.012;2024-01-30T13:55:12;13.02;;;7.53;;
40863;SDS011;26582;47.524;19.012;2024-01-30T13:57:39;11.07;;;6.50;;
40863;SDS011;26582;47.524;19.012;2024-01-30T14:00:06;13.85;;;7.80;;
40863;SDS011;26582;47.524;19.012;2024-01-30T14:02:40;11.40;;;5.90;;
40863;SDS011;26582;47.524;19.012;2024-01-30T14:05:08;13.30;;;7.25;;
40863;SDS011;26582;47.524;19.012;2024-01-30T14:07:35;11.45;;;6.97;;
40863;SDS011;26582;47.524;19.012;2024-01-30T14:10:04;3.33;;;2.40;;
40863;SDS011;26582;47.524;19.012;2024-01-30T14:12:32;13.50;;;6.75;;
40863;SDS011;26582;47.524;19.012;2024-01-30T14:14:58;14.88;;;7.22;;